WXM80 ListenWXM80 Stop

You find our weather info also at:

UK Metoffice

WeatherCloud

Weather Underground

Northeastern Weather Network

AWEKAS

Citizen Weather Observer Program (CWOP)

HAMweather, WeatherForYou, PWS Weather


Weather Underground History page Text

Daily Summary for November 23, 2017 Units:  Metric    English   Both
« Previous Day
Next Day »
Daily Weekly Monthly Yearly Custom
  High: Low: Average:
Temperature: 5.8 °C -0.5 °C 2.3 °C
Dew Point: -1.6 °C -4.2 °C -3.2 °C
Humidity: 81 % 52 % 68 %
Wind Speed: 11.9 km/h 0 km/h 3.2 km/h
Wind Gust: 24.1 km/h - -
Wind:- - West
Pressure: 1020.5 hPa 1009 hPa -
Precipitation: 0 mm    
Historical Graphs
 
 
Tabular Data for November 23, 2017
Time Temperature Dew Point Pressure Wind Wind Speed Wind Gust Humidity Rainfall Rate (Hourly)
00:02 3.4 °C -1.8 °C 1018.5 hPa SW 7.7 km/h 16.7 km/h 69 % 0 mm
00:07 3.4 °C -1.8 °C 1018.5 hPa North 7.4 km/h 9.7 km/h 69 % 0 mm
00:12 3.3 °C -1.6 °C 1018.5 hPa North 8.5 km/h 22.5 km/h 70 % 0 mm
00:17 3.3 °C -1.8 °C 1018.8 hPa NNW 7.2 km/h 11.1 km/h 69 % 0 mm
00:23 3.3 °C -1.9 °C 1018.5 hPa NNW 6.1 km/h 13 km/h 69 % 0 mm
00:28 3.2 °C -1.9 °C 1018.5 hPa NNW 9.3 km/h 18.5 km/h 69 % 0 mm
00:33 3.2 °C -1.8 °C 1018.5 hPa NW 1.6 km/h 13 km/h 70 % 0 mm
00:38 3.2 °C -1.8 °C 1018.5 hPa WNW 6.9 km/h 16.7 km/h 70 % 0 mm
00:43 3.1 °C -1.8 °C 1018.5 hPa NW 8.7 km/h 11.3 km/h 70 % 0 mm
00:48 3.1 °C -2.1 °C 1018.2 hPa West 3.9 km/h 20.4 km/h 69 % 0 mm
00:53 3.1 °C -1.9 °C 1018.2 hPa WNW 4.7 km/h 13 km/h 70 % 0 mm
00:58 3 °C -1.7 °C 1018.2 hPa West 10.8 km/h 18.5 km/h 71 % 0 mm
01:03 3 °C -1.9 °C 1018.2 hPa West 10.3 km/h 18.5 km/h 70 % 0 mm
01:08 2.9 °C -2 °C 1010.4 hPa WNW 1.4 km/h 13 km/h 70 % 0 mm
01:18 2.8 °C -2.1 °C 1018.5 hPa West 8.5 km/h 16.7 km/h 70 % 0 mm
01:23 2.8 °C -1.9 °C 1018.5 hPa North 7.6 km/h 12.9 km/h 71 % 0 mm
01:28 2.7 °C -2 °C 1018.5 hPa WSW 5.1 km/h 9.7 km/h 71 % 0 mm
01:38 2.6 °C -2.1 °C 1010.7 hPa NW 4.8 km/h 11.1 km/h 71 % 0 mm
01:43 2.6 °C -2.1 °C 1018.8 hPa NW 6.1 km/h 11.1 km/h 71 % 0 mm
01:53 2.5 °C -2.2 °C 1018.8 hPa NW 3.5 km/h 9.3 km/h 71 % 0 mm
02:03 2.4 °C -2.3 °C 1018.8 hPa NW 6.1 km/h 9.7 km/h 71 % 0 mm
02:08 2.3 °C -2.6 °C 1019.2 hPa WNW 10.1 km/h 14.8 km/h 70 % 0 mm
02:13 2.3 °C -2.4 °C 1019.2 hPa West 7.4 km/h 13 km/h 71 % 0 mm
02:18 2.3 °C -2.4 °C 1019.2 hPa West 9.7 km/h 14.8 km/h 71 % 0 mm
02:23 2.2 °C -2.5 °C 1019.2 hPa WNW 8 km/h 14.8 km/h 71 % 0 mm
02:28 2.2 °C -2.6 °C 1019.2 hPa NW 4 km/h 12.9 km/h 71 % 0 mm
02:33 2.2 °C -2.6 °C 1019.2 hPa WNW 7.2 km/h 16.7 km/h 71 % 0 mm
02:38 2.1 °C -2.4 °C 1018.8 hPa NW 5.8 km/h 14.8 km/h 72 % 0 mm
02:43 2.1 °C -2.7 °C 1018.8 hPa NNE 4 km/h 13 km/h 71 % 0 mm
02:48 2.1 °C -2.4 °C 1018.8 hPa WNW 9 km/h 17.7 km/h 72 % 0 mm
02:53 2.1 °C -2.4 °C 1011.1 hPa WNW 8.4 km/h 18.5 km/h 72 % 0 mm
03:03 2 °C -2.5 °C 1018.8 hPa West 5.5 km/h 18.5 km/h 72 % 0 mm
03:08 2 °C -2.5 °C 1018.8 hPa WNW 8.9 km/h 14.8 km/h 72 % 0 mm
03:13 2 °C -2.5 °C 1019.2 hPa WNW 6.3 km/h 18.5 km/h 72 % 0 mm
03:18 2 °C -2.7 °C 1018.8 hPa North 11.9 km/h 24.1 km/h 71 % 0 mm
03:23 1.9 °C -2.6 °C 1018.5 hPa WNW 9.8 km/h 16.7 km/h 72 % 0 mm
03:29 1.9 °C -2.6 °C 1018.8 hPa NW 10.5 km/h 16.7 km/h 72 % 0 mm
03:39 1.8 °C -2.5 °C 1018.8 hPa WNW 6.6 km/h 18.5 km/h 73 % 0 mm
03:44 1.8 °C -2.7 °C 1018.8 hPa North 5.3 km/h 14.5 km/h 72 % 0 mm
03:49 1.8 °C -2.9 °C 1018.8 hPa NW 7.9 km/h 16.7 km/h 71 % 0 mm
03:54 1.7 °C -3 °C 1018.8 hPa NW 8.4 km/h 14.5 km/h 71 % 0 mm
03:59 1.7 °C -3.1 °C 1018.8 hPa NW 11.4 km/h 22.2 km/h 71 % 0 mm
04:09 1.6 °C -3.1 °C 1018.8 hPa NW 7.2 km/h 13 km/h 71 % 0 mm
04:15 1.6 °C -3.1 °C 1018.8 hPa NW 7.7 km/h 14.5 km/h 71 % 0 mm
04:30 1.5 °C -3 °C 1011.1 hPa NW 3.5 km/h 20.4 km/h 72 % 0 mm
04:35 1.4 °C -3.1 °C 1018.8 hPa WNW 8.9 km/h 16.1 km/h 72 % 0 mm
04:45 1.3 °C -3.2 °C 1018.8 hPa NNW 3.4 km/h 11.1 km/h 72 % 0 mm
04:50 1.3 °C -3.2 °C 1018.8 hPa NNW 6.9 km/h 13 km/h 72 % 0 mm
05:00 1.3 °C -3.4 °C 1018.8 hPa North 9.2 km/h 18.5 km/h 71 % 0 mm
05:10 1.2 °C -3.3 °C 1019.2 hPa North 10.6 km/h 22.2 km/h 72 % 0 mm
05:20 1.1 °C -3.6 °C 1019.2 hPa NNE 6.4 km/h 13 km/h 71 % 0 mm
05:25 1.1 °C -3.4 °C 1019.2 hPa North 5.8 km/h 11.1 km/h 72 % 0 mm
05:30 1 °C -3.7 °C 1018.8 hPa NW 3.5 km/h 5.6 km/h 71 % 0 mm
05:35 0.9 °C -3.7 °C 1018.8 hPa North 3.1 km/h 9.7 km/h 71 % 0 mm
05:40 0.9 °C -3.3 °C 1018.8 hPa NW 4.2 km/h 11.1 km/h 73 % 0 mm
05:45 0.9 °C -3.6 °C 1018.8 hPa NW 4.5 km/h 11.1 km/h 72 % 0 mm
05:50 0.8 °C -3.7 °C 1019.2 hPa NW 5.5 km/h 14.8 km/h 72 % 0 mm
05:55 0.8 °C -3.7 °C 1019.5 hPa NW 1.1 km/h 11.1 km/h 72 % 0 mm
06:00 0.8 °C -3.7 °C 1019.5 hPa NNW 4.8 km/h 9.3 km/h 72 % 0 mm
06:05 0.7 °C -3.6 °C 1019.5 hPa NNW 3.2 km/h 5.6 km/h 73 % 0 mm
06:10 0.7 °C -3.6 °C 1019.2 hPa North 7.9 km/h 9.3 km/h 73 % 0 mm
06:15 0.7 °C -3.6 °C 1019.5 hPa NNW 1.1 km/h 5.6 km/h 73 % 0 mm
06:20 0.7 °C -3.8 °C 1011.4 hPa North 2.7 km/h 5.6 km/h 72 % 0 mm
06:26 0.7 °C -3.6 °C 1019.5 hPa NNW 8 km/h 14.5 km/h 73 % 0 mm
06:31 0.7 °C -3.6 °C 1019.5 hPa North 1.6 km/h 9.7 km/h 73 % 0 mm
06:36 0.7 °C -3.8 °C 1019.2 hPa NNW 2.3 km/h 7.4 km/h 72 % 0 mm
06:41 0.6 °C -3.8 °C 1011.4 hPa NW 6.3 km/h 14.8 km/h 72 % 0 mm
06:51 0.6 °C -3.9 °C 1011.4 hPa NNW 1.6 km/h 5.6 km/h 72 % 0 mm
06:56 0.6 °C -3.7 °C 1019.5 hPa North 2.4 km/h 5.6 km/h 73 % 0 mm
07:01 0.5 °C -3.8 °C 1011.4 hPa North 6.6 km/h 9.7 km/h 73 % 0 mm
07:06 0.5 °C -3.8 °C 1019.5 hPa NW 1.9 km/h 5.6 km/h 73 % 0 mm
07:11 0.5 °C -3.8 °C 1019.9 hPa WNW 0.2 km/h 3.2 km/h 73 % 0 mm
07:16 0.4 °C -3.8 °C 1020.2 hPa Calm   5.6 km/h 73 % 0 mm
07:21 0.4 °C -4 °C 1020.2 hPa WNW 4.8 km/h 5.6 km/h 72 % 0 mm
07:26 0.4 °C -4 °C 1020.2 hPa WNW 2.3 km/h 5.6 km/h 72 % 0 mm
07:31 0.5 °C -3.9 °C 1020.2 hPa NE 5 km/h 13 km/h 72 % 0 mm
07:36 0.6 °C -3.9 °C 1020.2 hPa NW 3.4 km/h 11.3 km/h 72 % 0 mm
07:57 0.8 °C -3.7 °C 1020.2 hPa NNE 1.6 km/h 5.6 km/h 72 % 0 mm
08:01 0.8 °C -4.1 °C 1012.4 hPa North 4.2 km/h 13 km/h 70 % 0 mm
08:03 0.8 °C -4 °C 1020.2 hPa NNW 7.1 km/h 13 km/h 70 % 0 mm
08:08 0.9 °C -4.2 °C 1020.2 hPa North 1.8 km/h 9.3 km/h 69 % 0 mm
08:13 0.9 °C -3.9 °C 1020.2 hPa NW 3.9 km/h 5.6 km/h 70 % 0 mm
08:18 1 °C -4.1 °C 1020.2 hPa WNW 4.7 km/h 9.7 km/h 69 % 0 mm
08:23 1.1 °C -4 °C 1020.2 hPa NW 3.9 km/h 7.4 km/h 69 % 0 mm
08:28 1.1 °C -3.9 °C 1012.4 hPa WNW 6.3 km/h 12.9 km/h 69 % 0 mm
08:43 1.3 °C -4 °C 1020.2 hPa NW 3.5 km/h 7.4 km/h 68 % 0 mm
08:53 1.6 °C -3.7 °C 1020.2 hPa North 7.1 km/h 11.1 km/h 68 % 0 mm
08:58 1.8 °C -3.7 °C 1020.2 hPa NNE 3.5 km/h 7.4 km/h 67 % 0 mm
09:03 2.1 °C -3.7 °C 1020.2 hPa North 4.2 km/h 7.4 km/h 66 % 0 mm
09:08 2.4 °C -3.5 °C 1020.2 hPa North 5.1 km/h 18.5 km/h 65 % 0 mm
09:23 3.2 °C -2.7 °C 1020.2 hPa NW 1.3 km/h 5.6 km/h 65 % 0 mm
09:28 3.4 °C -2.7 °C 1020.5 hPa NNW 5 km/h 5.6 km/h 64 % 0 mm
09:34 3.6 °C -3 °C 1020.5 hPa WNW 4 km/h 11.3 km/h 62 % 0 mm
09:39 3.8 °C -2.6 °C 1020.5 hPa WNW 1.3 km/h 5.6 km/h 63 % 0 mm
09:49 4.3 °C -2.6 °C 1020.2 hPa NNW 3.9 km/h 9.3 km/h 61 % 0 mm
09:54 4.4 °C -2.7 °C 1020.2 hPa North 3.4 km/h 7.4 km/h 60 % 0 mm
09:59 4.7 °C -2 °C 1019.9 hPa North 6.3 km/h 9.3 km/h 62 % 0 mm
10:09 4.9 °C -2.2 °C 1020.2 hPa NNW 2.1 km/h 5.6 km/h 60 % 0 mm
10:14 5.1 °C -2.1 °C 1019.9 hPa NNW 5 km/h 8 km/h 60 % 0 mm
10:19 5.1 °C -2 °C 1019.9 hPa NNE 3.5 km/h 7.4 km/h 60 % 0 mm
10:24 5.1 °C -2.6 °C 1019.9 hPa WNW 6.9 km/h 9.3 km/h 58 % 0 mm
10:29 5 °C -2.1 °C 1019.9 hPa NNW 0.8 km/h 5.6 km/h 60 % 0 mm
10:34 4.8 °C -2.5 °C 1019.9 hPa NW 5.3 km/h 11.1 km/h 59 % 0 mm
10:39 4.8 °C -2.8 °C 1019.9 hPa NW 2.7 km/h 7.4 km/h 58 % 0 mm
10:49 4.6 °C -2.8 °C 1019.5 hPa NW 2.6 km/h 7.4 km/h 59 % 0 mm
10:54 4.4 °C -2.9 °C 1019.9 hPa NNW 3.9 km/h 7.4 km/h 59 % 0 mm
10:59 4.3 °C -3.3 °C 1011.4 hPa NW 0.8 km/h 11.1 km/h 58 % 0 mm
11:04 4.1 °C -3.4 °C 1019.5 hPa NW 3.5 km/h 9.3 km/h 58 % 0 mm
11:14 3.8 °C -3.5 °C 1019.2 hPa WNW 2.3 km/h 7.4 km/h 59 % 0 mm
11:29 3.6 °C -3.5 °C 1018.8 hPa NNW 3.1 km/h 12.9 km/h 60 % 0 mm
11:34 3.5 °C -3.3 °C 1018.8 hPa WNW 3.1 km/h 8 km/h 61 % 0 mm
11:35 3.5 °C -3.3 °C 1018.8 hPa NW 4.5 km/h 9.3 km/h 61 % 0 mm
11:40 3.5 °C -3.1 °C 1018.5 hPa NW 1.6 km/h 5.6 km/h 62 % 0 mm
11:45 3.4 °C -2.9 °C 1010.4 hPa NNW 1.9 km/h 8 km/h 63 % 0 mm
11:51 3.4 °C -3.2 °C 1018.5 hPa NW 4.8 km/h 11.3 km/h 62 % 0 mm
11:56 3.5 °C -3.3 °C 1010.7 hPa NW 6.1 km/h 11.3 km/h 61 % 0 mm
12:11 3.7 °C -3.4 °C 1018.5 hPa North 7.4 km/h 13 km/h 60 % 0 mm
12:16 3.7 °C -3.3 °C 1018.5 hPa NW 3.9 km/h 5.6 km/h 60 % 0 mm
12:21 3.8 °C -3.3 °C 1018.5 hPa NW 2.1 km/h 5.6 km/h 60 % 0 mm
12:26 3.9 °C -3.4 °C 1018.5 hPa WNW 1 km/h 7.4 km/h 59 % 0 mm
12:36 4 °C -3.6 °C 1018.2 hPa WNW 1.6 km/h 3.7 km/h 58 % 0 mm
12:41 4.1 °C -3.7 °C 1018.2 hPa SW 6.4 km/h 12.9 km/h 57 % 0 mm
12:51 4.2 °C -3.6 °C 1018.2 hPa North 3.9 km/h 9.3 km/h 57 % 0 mm
12:56 4.3 °C -3.5 °C 1018.2 hPa NW 1.3 km/h 5.6 km/h 57 % 0 mm
13:01 4.3 °C -3.2 °C 1018.2 hPa NNW 3.4 km/h 5.6 km/h 58 % 0 mm
13:07 4.4 °C -3.1 °C 1017.8 hPa WNW 4.8 km/h 7.4 km/h 58 % 0 mm
13:17 4.7 °C -3.4 °C 1017.8 hPa NW 7.1 km/h 11.1 km/h 56 % 0 mm
13:22 4.8 °C -3.1 °C 1017.8 hPa WNW 4.7 km/h 7.4 km/h 57 % 0 mm
13:27 4.9 °C -3.2 °C 1017.8 hPa WNW 6 km/h 11.1 km/h 56 % 0 mm
13:32 5.1 °C -3.3 °C 1017.8 hPa NW 0.5 km/h 5.6 km/h 55 % 0 mm
13:37 5.2 °C -2.8 °C 1017.5 hPa West 1.9 km/h 5.6 km/h 56 % 0 mm
13:44 5.4 °C -3.1 °C 1017.5 hPa West 7.7 km/h 14.8 km/h 54 % 0 mm
13:49 5.6 °C -3.3 °C 1017.5 hPa WNW 1.8 km/h 7.4 km/h 53 % 0 mm
13:50 5.6 °C -3.2 °C 1017.5 hPa WNW 1 km/h 1.9 km/h 53 % 0 mm
13:55 5.7 °C -2.9 °C 1017.2 hPa NW 2.4 km/h 5.6 km/h 54 % 0 mm
14:00 5.7 °C -3.1 °C 1017.2 hPa North 3.7 km/h 5.6 km/h 53 % 0 mm
14:05 5.8 °C -2.8 °C 1017.2 hPa WNW 2.1 km/h 5.6 km/h 54 % 0 mm
14:10 5.8 °C -3.1 °C 1017.2 hPa Calm   3.7 km/h 53 % 0 mm
14:15 5.8 °C -3 °C 1017.2 hPa NW 2.7 km/h 6.4 km/h 53 % 0 mm
14:20 5.8 °C -3.3 °C 1017.2 hPa WNW 5.3 km/h 13 km/h 52 % 0 mm
14:30 5.6 °C -3.6 °C 1017.2 hPa WSW 5.3 km/h 8 km/h 52 % 0 mm
14:35 5.4 °C -3.4 °C 1017.2 hPa NW 2.6 km/h 9.3 km/h 53 % 0 mm
14:40 5.3 °C -3.6 °C 1017.2 hPa West 1.9 km/h 7.4 km/h 53 % 0 mm
14:45 5.3 °C -3.6 °C 1009 hPa West 1.8 km/h 5.6 km/h 53 % 0 mm
14:51 5.2 °C -3.4 °C 1017.2 hPa West 3.2 km/h 8 km/h 54 % 0 mm
15:06 5 °C -3.6 °C 1017.2 hPa WSW 0.2 km/h 3.7 km/h 54 % 0 mm
15:16 4.9 °C -3.6 °C 1016.8 hPa West 5.8 km/h 11.1 km/h 54 % 0 mm
15:21 4.9 °C -3.7 °C 1017.2 hPa WSW 3.2 km/h 8 km/h 54 % 0 mm
15:31 4.8 °C -3.7 °C 1017.2 hPa Calm   4.8 km/h 54 % 0 mm
15:36 4.8 °C -3.5 °C 1009 hPa West 1.6 km/h 4.8 km/h 55 % 0 mm
15:41 4.7 °C -3.6 °C 1017.2 hPa WSW 4.8 km/h 9.7 km/h 55 % 0 mm
15:46 4.7 °C -3.6 °C 1017.2 hPa WSW 3.2 km/h 8 km/h 55 % 0 mm
15:56 4.6 °C -3.4 °C 1017.2 hPa WSW 1.6 km/h 4.8 km/h 56 % 0 mm
16:01 4.6 °C -3.5 °C 1017.2 hPa WSW 3.9 km/h 5.6 km/h 56 % 0 mm
16:03 4.6 °C -3.5 °C 1017.2 hPa Calm     56 % 0 mm
16:13 4.4 °C -3.4 °C 1016.8 hPa Calm     57 % 0 mm
16:28 4.2 °C -3.4 °C 1016.8 hPa Calm     58 % 0 mm
16:33 4.1 °C -3.2 °C 1009 hPa Calm     59 % 0 mm
16:35 4 °C -3.1 °C 1016.8 hPa Calm     60 % 0 mm
16:40 3.9 °C -2.9 °C 1016.8 hPa Calm     61 % 0 mm
16:45 3.8 °C -3.1 °C 1016.8 hPa Calm     61 % 0 mm
17:02 3.3 °C -3.1 °C 1016.8 hPa Calm     63 % 0 mm
17:07 3.1 °C -2.9 °C 1016.8 hPa Calm     65 % 0 mm
17:17 2.8 °C -2.9 °C 1016.8 hPa Calm     66 % 0 mm
17:22 2.6 °C -3.1 °C 1016.8 hPa Calm     66 % 0 mm
17:27 2.4 °C -3.3 °C 1017.2 hPa WSW 0.2 km/h 1.6 km/h 66 % 0 mm
17:32 2.3 °C -3.2 °C 1017.2 hPa Calm     67 % 0 mm
17:37 2.2 °C -3.1 °C 1017.2 hPa Calm     68 % 0 mm
17:42 2 °C -3.3 °C 1017.2 hPa Calm     68 % 0 mm
17:47 1.8 °C -3.4 °C 1017.2 hPa Calm     68 % 0 mm
17:58 1.6 °C -3.7 °C 1017.2 hPa WSW 0.2 km/h 3.7 km/h 68 % 0 mm
18:03 1.6 °C -3.7 °C 1017.2 hPa Calm     68 % 0 mm
18:08 1.4 °C -3.6 °C 1017.2 hPa Calm     69 % 0 mm
18:23 1.2 °C -3.4 °C 1016.8 hPa WSW 0.2 km/h 1.9 km/h 71 % 0 mm
18:28 1.2 °C -3.5 °C 1016.8 hPa Calm   1.9 km/h 71 % 0 mm
18:33 1.1 °C -3.4 °C 1017.2 hPa Calm     72 % 0 mm
18:38 1 °C -3.5 °C 1017.2 hPa WSW 1.6 km/h 3.7 km/h 72 % 0 mm
18:43 0.9 °C -3.6 °C 1016.8 hPa WSW 2.6 km/h 3.7 km/h 72 % 0 mm
18:48 0.8 °C -3.4 °C 1017.2 hPa Calm     73 % 0 mm
18:53 0.8 °C -3.4 °C 1017.2 hPa Calm     73 % 0 mm
18:58 0.8 °C -3.4 °C 1009 hPa Calm     73 % 0 mm
19:13 0.8 °C -3.7 °C 1017.2 hPa Calm   1.9 km/h 72 % 0 mm
19:18 0.9 °C -3.8 °C 1017.2 hPa Calm     71 % 0 mm
19:24 0.9 °C -3.9 °C 1009 hPa Calm   1.9 km/h 70 % 0 mm
19:34 1.1 °C -3.9 °C 1016.8 hPa Calm     69 % 0 mm
19:39 1.2 °C -3.7 °C 1009 hPa Calm     70 % 0 mm
19:43 1.2 °C -3.8 °C 1016.8 hPa Calm     69 % 0 mm
19:48 1.3 °C -4 °C 1016.8 hPa WSW 0.3 km/h   68 % 0 mm
19:59 1.3 °C -3.9 °C 1016.8 hPa Calm     68 % 0 mm
20:04 1.3 °C -3.9 °C 1016.8 hPa Calm     68 % 0 mm
20:09 1.3 °C -3.7 °C 1016.8 hPa Calm     69 % 0 mm
20:19 1.3 °C -3.6 °C 1017.2 hPa WSW 0.6 km/h 1.9 km/h 70 % 0 mm
20:29 1.3 °C -3.3 °C 1016.8 hPa Calm     71 % 0 mm
20:34 1.3 °C -3.4 °C 1016.8 hPa Calm     71 % 0 mm
20:39 1.3 °C -3.4 °C 1016.8 hPa Calm     71 % 0 mm
20:49 1.2 °C -3.5 °C 1016.8 hPa Calm     71 % 0 mm
20:54 1.1 °C -3.6 °C 1017.2 hPa WSW 0.5 km/h 1.9 km/h 71 % 0 mm
21:00 1.1 °C -3.4 °C 1017.2 hPa Calm     72 % 0 mm
21:05 1 °C -3.5 °C 1016.8 hPa WSW 1 km/h 1.9 km/h 72 % 0 mm
21:10 0.9 °C -3.4 °C 1017.2 hPa WSW 0.5 km/h 1.9 km/h 73 % 0 mm
21:15 0.8 °C -3.4 °C 1017.2 hPa Calm     73 % 0 mm
21:20 0.8 °C -3.5 °C 1017.2 hPa Calm     73 % 0 mm
21:25 0.7 °C -3.6 °C 1017.5 hPa Calm     73 % 0 mm
21:30 0.7 °C -3.4 °C 1017.5 hPa Calm     74 % 0 mm
21:35 0.6 °C -3.6 °C 1017.5 hPa Calm     74 % 0 mm
21:45 0.4 °C -3.5 °C 1017.5 hPa WSW 2.1 km/h 3.7 km/h 75 % 0 mm
21:50 0.4 °C -3.6 °C 1017.5 hPa Calm     75 % 0 mm
21:55 0.3 °C -3.4 °C 1017.5 hPa WSW 1.6 km/h 3.7 km/h 76 % 0 mm
22:00 0.3 °C -3.4 °C 1017.5 hPa Calm   1.9 km/h 76 % 0 mm
22:05 0.2 °C -3.3 °C 1017.8 hPa WSW 2.4 km/h 3.7 km/h 77 % 0 mm
22:10 0.2 °C -3.4 °C 1017.8 hPa Calm   1.9 km/h 77 % 0 mm
22:16 0.2 °C -3.4 °C 1017.8 hPa WSW 1.4 km/h 1.9 km/h 77 % 0 mm
22:21 0.1 °C -3.3 °C 1017.8 hPa Calm   1.6 km/h 78 % 0 mm
22:23 0.1 °C -3.3 °C 1017.8 hPa Calm   1.9 km/h 78 % 0 mm
22:31 0 °C -3.4 °C 1017.5 hPa Calm     78 % 0 mm
22:36 0 °C -3.4 °C 1017.8 hPa Calm     78 % 0 mm
22:41 -0.1 °C -3.4 °C 1017.8 hPa WSW 0.8 km/h 1.9 km/h 78 % 0 mm
22:46 -0.1 °C -3.3 °C 1017.8 hPa WSW 0.5 km/h 1.9 km/h 79 % 0 mm
22:52 -0.1 °C -3.3 °C 1017.5 hPa WSW 1.4 km/h 3.7 km/h 79 % 0 mm
22:57 -0.2 °C -3.4 °C 1017.5 hPa WSW 0.3 km/h 1.9 km/h 79 % 0 mm
23:07 -0.2 °C -3.3 °C 1017.5 hPa Calm     80 % 0 mm
23:11 -0.2 °C -3.3 °C 1017.5 hPa Calm     80 % 0 mm
23:17 -0.2 °C -3.3 °C 1017.5 hPa WSW 2.1 km/h 3.7 km/h 80 % 0 mm
23:22 -0.3 °C -3.3 °C 1017.5 hPa WSW 1 km/h 3.7 km/h 80 % 0 mm
23:26 -0.3 °C -3.4 °C 1017.5 hPa WSW 1.6 km/h 3.2 km/h 80 % 0 mm
23:32 -0.3 °C -3.4 °C 1017.5 hPa WSW 1.4 km/h 1.9 km/h 80 % 0 mm
23:37 -0.4 °C -3.4 °C 1017.5 hPa Calm     80 % 0 mm
23:42 -0.4 °C -3.5 °C 1017.5 hPa WSW 0.8 km/h 3.7 km/h 80 % 0 mm
23:47 -0.4 °C -3.3 °C 1017.5 hPa WSW 0.6 km/h 1.9 km/h 81 % 0 mm
23:57 -0.5 °C -3.3 °C 1017.8 hPa WSW 1.8 km/h 3.7 km/h 81 % 0 mm
Crab Meadow Weather
Compliments of Weather Underground - 2.5 mb

Script developed by  Jim McMurry - jmcmurry@mwt.net Adapted for the template by  Wim van der Kuil - Leuven-Template.eu

Recycling: Recycling one aluminum can saves enough energy to run a TV for three hours -- or the equivalent of a half a gallon of gasoline.